Time;durP1;ratioP1;P1;durP2;ratioP2;P2;SDS_P1;SDS_P2;PMS_P1;PMS_P2;Temp;Humidity;BMP_temperature;BMP_pressure;BME280_temperature;BME280_humidity;BME280_pressure;Samples;Min_cycle;Max_cycle;Signal;HPM_P1;HPM_P2
2021/03/31 00:00:49;;;;;;;37.30;13.82;;;13.10;95.10;;;;;;5061187;28;20071;-72
2021/03/31 00:03:18;;;;;;;33.60;13.88;;;13.00;95.20;;;;;;5060727;28;20111;-72
2021/03/31 00:05:43;;;;;;;32.33;14.05;;;13.00;95.30;;;;;;5074418;28;20036;-72
2021/03/31 00:08:09;;;;;;;32.25;12.88;;;13.00;95.40;;;;;;5060401;28;20025;-72
2021/03/31 00:10:44;;;;;;;33.88;13.85;;;12.90;95.60;;;;;;5071954;28;20025;-72
2021/03/31 00:13:11;;;;;;;33.80;13.35;;;12.90;95.70;;;;;;5072905;28;20020;-72
2021/03/31 00:15:37;;;;;;;35.40;14.40;;;12.80;95.60;;;;;;5072918;28;20025;-72
2021/03/31 00:18:05;;;;;;;35.38;14.07;;;12.90;95.30;;;;;;5059868;28;20047;-73
2021/03/31 00:20:31;;;;;;;35.95;14.73;;;12.90;95.20;;;;;;5067021;28;20028;-72
2021/03/31 00:22:57;;;;;;;31.00;13.85;;;13.00;95.20;;;;;;5046618;28;20132;-72
2021/03/31 00:25:22;;;;;;;32.13;13.75;;;12.90;95.20;;;;;;5069594;28;20036;-72
2021/03/31 00:27:48;;;;;;;31.38;13.48;;;12.90;95.50;;;;;;5073527;28;20024;-72
2021/03/31 00:30:18;;;;;;;36.45;13.60;;;12.80;95.80;;;;;;5079117;28;20028;-72
2021/03/31 00:32:43;;;;;;;35.50;13.77;;;12.70;95.80;;;;;;5072978;28;20487;-72
2021/03/31 00:35:10;;;;;;;37.45;13.55;;;12.70;96.00;;;;;;5068782;28;20028;-72
2021/03/31 00:37:36;;;;;;;39.25;14.23;;;12.70;96.00;;;;;;5050424;28;20048;-72
2021/03/31 00:40:17;;;;;;;33.80;14.10;;;12.70;96.10;;;;;;5055237;28;20043;-72
2021/03/31 00:42:44;;;;;;;34.53;13.25;;;12.60;96.10;;;;;;5041225;28;20020;-72
2021/03/31 00:45:11;;;;;;;32.88;12.80;;;12.50;96.20;;;;;;5071356;28;20033;-71
2021/03/31 00:47:38;;;;;;;33.30;14.60;;;12.50;96.30;;;;;;5062173;28;20056;-71
2021/03/31 00:50:07;;;;;;;33.80;13.60;;;12.40;96.40;;;;;;5063338;28;20501;-71
2021/03/31 00:52:33;;;;;;;31.85;11.80;;;12.30;96.60;;;;;;5071659;28;20036;-71
2021/03/31 00:54:59;;;;;;;33.65;12.80;;;12.30;96.80;;;;;;5069397;28;20473;-71
2021/03/31 00:57:24;;;;;;;33.72;13.75;;;12.20;96.80;;;;;;5048994;28;20040;-71
2021/03/31 00:59:51;;;;;;;37.58;14.38;;;12.20;96.70;;;;;;5047903;28;20020;-71
2021/03/31 01:02:16;;;;;;;36.42;13.60;;;12.20;96.70;;;;;;5061581;28;20028;-71
2021/03/31 01:04:42;;;;;;;33.95;13.15;;;12.20;96.70;;;;;;5071488;28;20583;-71
2021/03/31 01:07:08;;;;;;;32.30;13.75;;;12.20;96.90;;;;;;5071721;28;20035;-71
2021/03/31 01:09:34;;;;;;;33.50;13.68;;;12.10;97.00;;;;;;5068160;28;20021;-71
2021/03/31 01:12:31;;;;;;;41.78;14.55;;;12.10;97.10;;;;;;5062907;28;20033;-70
2021/03/31 01:15:26;;;;;;;38.60;14.73;;;12.10;97.00;;;;;;5058300;28;20520;-71
2021/03/31 01:18:02;;;;;;;39.03;14.50;;;12.10;97.00;;;;;;5051796;28;20066;-72
2021/03/31 01:21:13;;;;;;;35.22;16.00;;;12.20;96.90;;;;;;5069911;28;20051;-72
2021/03/31 01:23:57;;;;;;;37.20;14.70;;;12.20;97.00;;;;;;4990218;28;20030;-71
2021/03/31 01:26:26;;;;;;;40.67;14.68;;;12.20;97.00;;;;;;5044602;28;20625;-72
2021/03/31 01:29:22;;;;;;;35.95;14.18;;;12.20;97.10;;;;;;5058337;28;20102;-71
2021/03/31 01:32:01;;;;;;;38.87;14.97;;;12.10;97.10;;;;;;5069196;28;20103;-71
2021/03/31 01:34:50;;;;;;;36.88;15.77;;;12.20;97.20;;;;;;5043029;28;20520;-72
2021/03/31 01:37:31;;;;;;;35.10;13.70;;;12.20;97.20;;;;;;5066314;28;20051;-71
2021/03/31 01:39:59;;;;;;;43.00;15.10;;;12.10;97.30;;;;;;5069118;28;20029;-72
2021/03/31 01:42:28;;;;;;;36.58;14.10;;;12.10;97.30;;;;;;5063436;28;20489;-71
2021/03/31 01:44:59;;;;;;;40.35;15.23;;;12.10;97.40;;;;;;5053384;28;20497;-71
2021/03/31 01:47:26;;;;;;;41.00;15.70;;;12.00;97.50;;;;;;5071348;28;20509;-71
2021/03/31 01:49:53;;;;;;;38.42;14.05;;;12.00;97.50;;;;;;5071473;28;20103;-71
2021/03/31 01:52:20;;;;;;;38.97;15.33;;;12.00;97.60;;;;;;5062119;28;20376;-71
2021/03/31 01:54:48;;;;;;;34.20;15.13;;;11.90;97.60;;;;;;5053791;28;20869;-71
2021/03/31 01:57:14;;;;;;;31.02;13.77;;;11.90;97.60;;;;;;5071944;28;20094;-71
2021/03/31 01:59:43;;;;;;;36.20;14.90;;;11.90;97.60;;;;;;5071617;28;20024;-70
2021/03/31 02:02:12;;;;;;;37.28;14.75;;;11.90;97.70;;;;;;5052826;28;20039;-70
2021/03/31 02:04:40;;;;;;;33.50;14.73;;;11.80;97.70;;;;;;5071268;28;20100;-70
2021/03/31 02:07:07;;;;;;;35.55;14.40;;;11.80;97.80;;;;;;5071181;28;20094;-70
2021/03/31 02:09:38;;;;;;;39.40;15.13;;;11.80;97.90;;;;;;5046465;28;20166;-71
2021/03/31 02:12:05;;;;;;;36.58;15.27;;;11.70;97.90;;;;;;5069957;28;20025;-72
2021/03/31 02:14:37;;;;;;;26.52;10.70;;;11.70;98.00;;;;;;5071864;28;20074;-71
2021/03/31 02:17:03;;;;;;;34.67;14.63;;;11.70;97.90;;;;;;5067570;28;20514;-71
2021/03/31 02:19:30;;;;;;;37.83;15.82;;;11.70;97.90;;;;;;5070634;28;20074;-71
2021/03/31 02:21:56;;;;;;;39.35;16.92;;;11.70;97.90;;;;;;5064831;28;20358;-71
2021/03/31 02:24:22;;;;;;;33.90;15.45;;;11.70;97.90;;;;;;5045975;28;20028;-70
2021/03/31 02:26:48;;;;;;;36.08;14.23;;;11.70;97.90;;;;;;5047347;28;20031;-71
2021/03/31 02:29:14;;;;;;;38.78;15.93;;;11.60;98.00;;;;;;5070463;28;20024;-71
2021/03/31 02:31:44;;;;;;;39.55;13.30;;;11.60;98.10;;;;;;5067039;28;20025;-71
2021/03/31 02:34:12;;;;;;;32.50;14.07;;;11.50;98.20;;;;;;5054532;28;20064;-71
2021/03/31 02:36:39;;;;;;;;;;;11.50;98.30;;;;;;5056429;28;20025;-71
2021/03/31 02:39:06;;;;;;;44.10;14.73;;;11.50;98.40;;;;;;5057674;28;19912;-71
2021/03/31 02:41:36;;;;;;;34.28;14.32;;;11.40;98.30;;;;;;5067697;28;20029;-70
2021/03/31 02:44:03;;;;;;;39.45;14.90;;;11.40;98.30;;;;;;5062602;28;20302;-70
2021/03/31 02:46:30;;;;;;;33.15;13.90;;;11.40;98.30;;;;;;5075152;28;20024;-70
2021/03/31 02:48:57;;;;;;;30.90;13.93;;;11.40;98.40;;;;;;5056287;28;20052;-70
2021/03/31 02:51:22;;;;;;;38.40;15.98;;;11.40;98.30;;;;;;5054299;28;20437;-71
2021/03/31 02:53:50;;;;;;;34.67;14.75;;;11.40;98.40;;;;;;5075607;28;20040;-71
2021/03/31 02:56:17;;;;;;;31.90;13.95;;;11.30;98.50;;;;;;5073760;28;20079;-71
2021/03/31 02:58:43;;;;;;;38.15;13.85;;;11.30;98.60;;;;;;5049928;28;20493;-71
2021/03/31 03:01:09;;;;;;;35.53;14.48;;;11.20;98.80;;;;;;5046151;28;20020;-71
2021/03/31 03:03:36;;;;;;;34.15;14.82;;;11.20;99.00;;;;;;5073707;28;20409;-70
2021/03/31 03:06:03;;;;;;;39.35;14.35;;;11.20;99.20;;;;;;5071258;28;20040;-70
2021/03/31 03:08:29;;;;;;;42.58;15.32;;;11.20;99.30;;;;;;5068639;28;20040;-72
2021/03/31 03:10:59;;;;;;;36.03;14.27;;;11.20;99.40;;;;;;5054302;28;20195;-71
2021/03/31 03:13:27;;;;;;;36.03;15.57;;;11.20;99.70;;;;;;5070421;28;20052;-70
2021/03/31 03:15:54;;;;;;;36.95;15.60;;;11.10;99.70;;;;;;5066044;28;20017;-72
2021/03/31 03:18:20;;;;;;;29.60;13.02;;;11.00;99.90;;;;;;5074599;28;20064;-72
2021/03/31 03:20:46;;;;;;;35.92;14.80;;;10.90;99.90;;;;;;5071596;28;20051;-72
2021/03/31 03:23:12;;;;;;;32.70;13.52;;;10.80;99.90;;;;;;5063195;28;20496;-72
2021/03/31 03:25:38;;;;;;;34.60;14.13;;;10.80;99.90;;;;;;5074301;28;20031;-72
2021/03/31 03:28:05;;;;;;;35.80;15.18;;;10.80;99.90;;;;;;5070573;28;20032;-72
2021/03/31 03:30:31;;;;;;;37.97;14.90;;;10.80;99.90;;;;;;5055465;28;20017;-71
2021/03/31 03:32:59;;;;;;;33.40;14.90;;;10.70;99.90;;;;;;5055425;28;20055;-71
2021/03/31 03:35:26;;;;;;;37.03;14.90;;;10.70;99.90;;;;;;5053163;28;20508;-71
2021/03/31 03:37:53;;;;;;;39.15;14.40;;;10.70;99.90;;;;;;5065015;28;20021;-72
2021/03/31 03:40:24;;;;;;;33.45;15.02;;;10.70;99.90;;;;;;5072061;28;20385;-71
2021/03/31 03:42:51;;;;;;;35.50;13.68;;;10.80;99.90;;;;;;5055752;28;20024;-71
2021/03/31 03:45:18;;;;;;;38.28;13.85;;;10.90;99.90;;;;;;5055978;28;20067;-71
2021/03/31 03:47:44;;;;;;;35.15;14.73;;;11.00;99.90;;;;;;5047854;28;20496;-70
2021/03/31 03:50:13;;;;;;;37.38;14.52;;;11.10;99.90;;;;;;5068076;28;20489;-70
2021/03/31 03:52:39;;;;;;;33.22;14.27;;;11.20;99.70;;;;;;5063674;28;20465;-71
2021/03/31 03:55:07;;;;;;;35.75;13.88;;;11.20;99.80;;;;;;5074441;28;20024;-72
2021/03/31 03:57:33;;;;;;;38.55;14.15;;;11.30;99.60;;;;;;5072722;28;20040;-71
2021/03/31 03:59:58;;;;;;;38.58;15.88;;;11.20;99.10;;;;;;5073087;28;20102;-71
2021/03/31 04:02:24;;;;;;;39.42;14.98;;;11.30;98.70;;;;;;5070969;28;20400;-72
2021/03/31 04:04:50;;;;;;;42.03;16.30;;;11.40;98.70;;;;;;5069781;28;20033;-72
2021/03/31 04:07:16;;;;;;;45.65;15.45;;;11.30;98.30;;;;;;5046584;28;20028;-72
2021/03/31 04:09:45;;;;;;;38.50;15.30;;;11.50;97.80;;;;;;5073474;28;20083;-72
2021/03/31 04:12:11;;;;;;;40.60;16.48;;;11.70;97.50;;;;;;5067478;28;20020;-70
2021/03/31 04:14:38;;;;;;;36.50;16.52;;;11.70;97.40;;;;;;5072168;28;20527;-71
2021/03/31 04:17:06;;;;;;;39.80;16.25;;;11.70;97.40;;;;;;5071440;28;20024;-73
2021/03/31 04:19:33;;;;;;;37.65;14.73;;;11.60;97.50;;;;;;5057720;28;20020;-72
2021/03/31 04:21:59;;;;;;;33.20;16.17;;;11.60;97.60;;;;;;5062827;28;20025;-72
2021/03/31 04:24:25;;;;;;;36.75;15.43;;;11.50;97.70;;;;;;5073704;28;20282;-71
2021/03/31 04:26:54;;;;;;;39.10;15.35;;;11.50;97.70;;;;;;5073077;28;20033;-71
2021/03/31 04:29:20;;;;;;;36.88;14.25;;;11.40;97.90;;;;;;5070003;28;20365;-70
2021/03/31 04:31:46;;;;;;;37.13;16.02;;;11.30;98.00;;;;;;5059455;28;20032;-71
2021/03/31 04:34:12;;;;;;;38.72;17.25;;;11.30;98.10;;;;;;5053796;28;20337;-71
2021/03/31 04:36:38;;;;;;;35.05;15.60;;;11.20;98.10;;;;;;5070721;28;20416;-71
2021/03/31 04:39:05;;;;;;;36.33;14.77;;;11.20;98.20;;;;;;5055462;28;20020;-71
2021/03/31 04:41:31;;;;;;;39.03;13.48;;;11.10;98.30;;;;;;5056167;28;20052;-71
2021/03/31 04:43:57;;;;;;;40.03;16.77;;;11.10;98.40;;;;;;5058114;28;20028;-71
2021/03/31 04:46:22;;;;;;;37.00;14.50;;;11.10;98.40;;;;;;5053098;28;20036;-70
2021/03/31 04:48:48;;;;;;;37.75;17.33;;;11.10;98.40;;;;;;5072591;28;20021;-70
2021/03/31 04:51:13;;;;;;;29.25;14.60;;;11.10;98.30;;;;;;5071562;28;20437;-71
2021/03/31 04:53:39;;;;;;;39.50;16.33;;;11.10;98.30;;;;;;5073459;28;20060;-71
2021/03/31 04:56:06;;;;;;;43.53;15.95;;;11.10;98.30;;;;;;5056418;28;20036;-70
2021/03/31 04:58:32;;;;;;;35.17;15.95;;;11.10;98.30;;;;;;5056944;28;20032;-72
2021/03/31 05:00:59;;;;;;;34.63;14.70;;;11.10;98.40;;;;;;5056600;28;20468;-70
2021/03/31 05:03:26;;;;;;;39.80;14.20;;;11.00;98.50;;;;;;5070550;28;20031;-71
2021/03/31 05:05:51;;;;;;;35.60;16.08;;;11.00;98.50;;;;;;5071772;28;20025;-71
2021/03/31 05:08:17;;;;;;;36.13;15.15;;;11.00;98.60;;;;;;5071441;28;20032;-71
2021/03/31 05:10:42;;;;;;;36.30;15.18;;;11.00;98.60;;;;;;5053405;28;20037;-71
2021/03/31 05:13:08;;;;;;;44.08;17.70;;;11.00;98.70;;;;;;5072094;28;20043;-71
2021/03/31 05:15:34;;;;;;;36.85;16.38;;;11.00;98.80;;;;;;5067623;28;20910;-71
2021/03/31 05:17:59;;;;;;;40.85;17.67;;;11.00;98.80;;;;;;5056311;28;20039;-71
2021/03/31 05:20:25;;;;;;;39.90;16.10;;;11.10;98.70;;;;;;5054893;28;20024;-70
2021/03/31 05:22:51;;;;;;;40.95;16.20;;;11.00;98.80;;;;;;5052618;28;20074;-71
2021/03/31 05:25:16;;;;;;;33.78;15.27;;;11.00;98.90;;;;;;5070593;28;20063;-72
2021/03/31 05:27:42;;;;;;;38.22;17.48;;;11.10;98.90;;;;;;5071265;28;20024;-71
2021/03/31 05:30:09;;;;;;;42.80;16.48;;;11.00;99.10;;;;;;5070789;28;20511;-71
2021/03/31 05:32:35;;;;;;;38.28;15.27;;;11.00;99.20;;;;;;5072410;28;20025;-71
2021/03/31 05:35:01;;;;;;;37.42;15.10;;;11.00;99.20;;;;;;5072039;28;20028;-71
2021/03/31 05:37:27;;;;;;;44.22;16.98;;;11.00;99.10;;;;;;5070341;28;20366;-71
2021/03/31 05:39:52;;;;;;;36.00;15.27;;;11.00;99.20;;;;;;5071785;28;20047;-71
2021/03/31 05:42:19;;;;;;;41.45;16.98;;;11.00;99.20;;;;;;5072228;28;20134;-71
2021/03/31 05:44:45;;;;;;;37.38;15.77;;;11.10;99.30;;;;;;5071784;28;20032;-72
2021/03/31 05:47:18;;;;;;;43.80;16.67;;;11.10;99.30;;;;;;5070522;28;20036;-72
2021/03/31 05:49:45;;;;;;;47.95;16.20;;;11.20;99.20;;;;;;5054667;28;20017;-72
2021/03/31 05:52:11;;;;;;;39.03;16.97;;;11.20;99.10;;;;;;5072042;28;20028;-72
2021/03/31 05:54:37;;;;;;;41.65;17.13;;;11.20;99.30;;;;;;5054248;28;20336;-72
2021/03/31 05:57:05;;;;;;;37.72;16.52;;;11.20;99.40;;;;;;5075548;28;20500;-72
2021/03/31 05:59:31;;;;;;;34.15;15.52;;;11.20;99.40;;;;;;5067849;28;20037;-72
2021/03/31 06:01:57;;;;;;;40.13;15.93;;;11.20;99.50;;;;;;5071308;28;20419;-73
2021/03/31 06:04:22;;;;;;;38.80;16.33;;;11.20;99.60;;;;;;5073117;28;20047;-72
2021/03/31 06:06:48;;;;;;;40.70;15.95;;;11.20;99.70;;;;;;5075147;28;20020;-72
2021/03/31 06:09:14;;;;;;;36.47;15.93;;;11.30;99.60;;;;;;5073501;28;20042;-72
2021/03/31 06:11:48;;;;;;;35.38;15.32;;;11.30;99.70;;;;;;5074647;28;20067;-72
2021/03/31 06:14:14;;;;;;;45.13;16.27;;;11.30;99.70;;;;;;5074427;28;20174;-72
2021/03/31 06:16:47;;;;;;;47.03;18.08;;;11.40;99.90;;;;;;5057003;28;20078;-72
2021/03/31 06:19:21;;;;;;;40.65;17.27;;;11.40;99.90;;;;;;5042813;28;20017;-72
2021/03/31 06:24:42;;;;;;;46.67;18.02;;;11.50;99.80;;;;;;5073060;28;20099;-72
2021/03/31 06:27:09;;;;;;;55.75;20.35;;;11.60;99.50;;;;;;5068808;28;20071;-71
2021/03/31 06:29:37;;;;;;;47.05;17.88;;;11.80;99.30;;;;;;5069730;28;20029;-71
2021/03/31 06:32:15;;;;;;;40.78;17.30;;;11.90;99.30;;;;;;5073916;28;20031;-72
2021/03/31 06:34:51;;;;;;;43.40;18.02;;;12.00;99.30;;;;;;5058163;28;20024;-72
2021/03/31 06:37:35;;;;;;;41.60;19.45;;;12.00;99.30;;;;;;5075712;28;20043;-72
2021/03/31 06:40:00;;;;;;;47.17;19.25;;;12.10;99.20;;;;;;5067745;28;20510;-72
2021/03/31 06:42:44;;;;;;;42.10;18.80;;;12.10;99.10;;;;;;5074838;28;20032;-72
2021/03/31 06:45:20;;;;;;;41.90;17.95;;;12.20;98.90;;;;;;5075387;28;20074;-72
2021/03/31 06:47:56;;;;;;;47.72;18.55;;;12.30;98.70;;;;;;5073214;28;20028;-72
2021/03/31 06:50:21;;;;;;;35.63;16.83;;;12.40;98.50;;;;;;5075462;28;20026;-73
2021/03/31 06:52:57;;;;;;;43.95;19.15;;;12.50;98.30;;;;;;5075057;28;20054;-72
2021/03/31 06:55:24;;;;;;;47.22;19.58;;;12.60;98.10;;;;;;5072888;28;20032;-72
2021/03/31 06:57:57;;;;;;;50.00;19.48;;;12.70;98.10;;;;;;5055966;28;20053;-72
2021/03/31 07:00:29;;;;;;;49.38;21.60;;;12.90;98.00;;;;;;5068344;28;20133;-72
2021/03/31 07:03:02;;;;;;;43.97;18.98;;;13.00;97.70;;;;;;5073043;28;20155;-72
2021/03/31 07:05:32;;;;;;;46.25;20.73;;;13.10;97.70;;;;;;5065397;28;20052;-74
2021/03/31 07:08:07;;;;;;;47.03;19.65;;;13.30;97.70;;;;;;5074584;28;20021;-73
2021/03/31 07:10:51;;;;;;;44.92;19.13;;;13.40;97.60;;;;;;5073097;28;20024;-72
2021/03/31 07:13:30;;;;;;;46.33;19.40;;;13.60;97.20;;;;;;5067116;28;20052;-72
2021/03/31 07:15:59;;;;;;;48.97;20.02;;;13.80;97.00;;;;;;5047741;28;20032;-74
2021/03/31 07:18:26;;;;;;;48.10;19.90;;;13.80;96.10;;;;;;5065962;28;20028;-73
2021/03/31 07:20:52;;;;;;;48.47;18.90;;;13.90;96.20;;;;;;5066173;28;20025;-75
2021/03/31 07:23:21;;;;;;;44.88;19.92;;;14.00;95.40;;;;;;5065827;28;20095;-75
2021/03/31 07:25:48;;;;;;;45.72;20.05;;;14.10;95.40;;;;;;5066104;28;20389;-76
2021/03/31 07:28:18;;;;;;;43.22;19.27;;;14.20;95.60;;;;;;5047567;28;20036;-75
2021/03/31 07:30:44;;;;;;;49.15;21.20;;;14.30;95.60;;;;;;5048189;28;20039;-74
2021/03/31 07:33:17;;;;;;;45.72;19.92;;;14.50;95.20;;;;;;5045886;28;20024;-74
2021/03/31 07:35:45;;;;;;;47.20;20.88;;;14.60;95.30;;;;;;5047945;28;20032;-72
2021/03/31 07:38:13;;;;;;;37.28;15.07;;;14.80;94.30;;;;;;5047889;28;20052;-73
2021/03/31 07:40:39;;;;;;;49.63;21.85;;;15.10;93.60;;;;;;5046466;28;20044;-73
2021/03/31 07:43:23;;;;;;;46.45;20.10;;;15.30;93.60;;;;;;5066472;28;20025;-74
2021/03/31 07:46:02;;;;;;;44.53;20.08;;;15.40;93.60;;;;;;5066613;28;20384;-72
2021/03/31 07:48:29;;;;;;;41.92;19.67;;;15.50;93.40;;;;;;5066894;28;20440;-74
2021/03/31 07:50:55;;;;;;;43.38;20.05;;;15.60;93.20;;;;;;5067146;28;20052;-74
2021/03/31 07:53:23;;;;;;;45.30;21.15;;;15.60;92.70;;;;;;5072717;28;20438;-72
2021/03/31 07:55:52;;;;;;;46.17;20.38;;;15.70;92.40;;;;;;5053481;28;20086;-72
2021/03/31 07:58:24;;;;;;;49.35;21.60;;;15.90;92.60;;;;;;5054921;28;20346;-72
2021/03/31 08:01:02;;;;;;;42.35;21.35;;;16.00;92.20;;;;;;5072148;28;20021;-74
2021/03/31 08:03:30;;;;;;;54.10;22.13;;;16.10;92.20;;;;;;5061070;28;20028;-72
2021/03/31 08:06:09;;;;;;;53.00;23.25;;;16.20;91.60;;;;;;5065746;28;20056;-73
2021/03/31 08:08:45;;;;;;;52.67;21.33;;;16.30;91.60;;;;;;5073046;28;20477;-72
2021/03/31 08:11:11;;;;;;;49.97;21.55;;;16.30;91.60;;;;;;5067636;28;20047;-74
2021/03/31 08:13:42;;;;;;;47.88;20.48;;;16.40;92.00;;;;;;5049395;28;20391;-76
2021/03/31 08:16:27;;;;;;;46.58;21.05;;;16.50;91.70;;;;;;5072352;28;20056;-73
2021/03/31 08:18:55;;;;;;;52.33;23.17;;;16.50;91.50;;;;;;5071910;28;20074;-74
2021/03/31 08:21:26;;;;;;;43.42;21.80;;;16.50;91.40;;;;;;5071360;28;20055;-71
2021/03/31 08:23:55;;;;;;;48.90;22.65;;;16.50;91.60;;;;;;5046971;28;20036;-73
2021/03/31 08:26:39;;;;;;;44.53;21.67;;;16.70;91.70;;;;;;5064738;28;20469;-75
2021/03/31 08:29:27;;;;;;;47.15;22.45;;;16.80;91.70;;;;;;5064398;28;20485;-74
2021/03/31 08:31:53;;;;;;;51.15;23.33;;;16.90;91.70;;;;;;5045470;28;20046;-73
2021/03/31 08:34:19;;;;;;;49.78;21.90;;;17.10;92.00;;;;;;5046977;28;20025;-71
2021/03/31 08:36:45;;;;;;;46.50;23.42;;;17.30;91.80;;;;;;5065790;28;20465;-72
2021/03/31 08:39:13;;;;;;;52.92;24.05;;;17.40;91.70;;;;;;5068134;28;20028;-72
2021/03/31 08:41:45;;;;;;;52.80;24.75;;;17.60;91.20;;;;;;5063108;28;20397;-72
2021/03/31 08:44:19;;;;;;;50.40;23.60;;;17.70;91.30;;;;;;5065249;28;20040;-73
2021/03/31 08:46:45;;;;;;;48.58;23.40;;;17.80;90.60;;;;;;5065607;28;20056;-73
2021/03/31 08:49:28;;;;;;;51.15;23.83;;;18.00;90.30;;;;;;5044507;28;20105;-73
2021/03/31 08:52:03;;;;;;;48.40;24.13;;;18.20;90.20;;;;;;5063528;28;20028;-73
2021/03/31 08:54:44;;;;;;;55.10;23.42;;;18.30;89.80;;;;;;5065027;28;20025;-73
2021/03/31 08:57:21;;;;;;;56.15;25.40;;;18.50;89.40;;;;;;5065483;28;20058;-72
2021/03/31 08:59:49;;;;;;;51.95;24.90;;;18.50;88.40;;;;;;5068446;28;20496;-73
2021/03/31 09:02:21;;;;;;;51.28;25.02;;;18.70;87.90;;;;;;5070263;28;20035;-72
2021/03/31 09:04:51;;;;;;;50.63;24.33;;;18.80;87.90;;;;;;5051995;28;20040;-72
2021/03/31 09:07:17;;;;;;;47.85;25.13;;;18.90;86.80;;;;;;5068552;28;20507;-73
2021/03/31 09:09:44;;;;;;;49.25;24.52;;;19.10;85.20;;;;;;5067721;28;20020;-72
2021/03/31 09:12:25;;;;;;;46.97;24.43;;;19.20;85.60;;;;;;5067294;28;20028;-72
2021/03/31 09:14:56;;;;;;;50.03;25.20;;;19.30;85.30;;;;;;5064981;28;20309;-73
2021/03/31 09:17:24;;;;;;;49.95;24.88;;;19.40;84.80;;;;;;5046903;28;20074;-72
2021/03/31 09:19:52;;;;;;;53.78;25.13;;;19.50;84.80;;;;;;5063153;28;20495;-72
2021/03/31 09:22:22;;;;;;;54.80;25.48;;;19.70;84.40;;;;;;5044726;28;20036;-71
2021/03/31 09:24:50;;;;;;;60.15;27.08;;;19.80;84.80;;;;;;5044316;28;20044;-72
2021/03/31 09:27:16;;;;;;;;;;;19.90;85.10;;;;;;5062912;28;20032;-72
2021/03/31 09:29:43;;;;;;;49.45;23.85;;;20.10;84.70;;;;;;5066471;28;19915;-72
2021/03/31 09:32:15;;;;;;;56.50;23.87;;;20.20;84.60;;;;;;5066537;28;20036;-73
2021/03/31 09:34:42;;;;;;;50.42;24.10;;;20.20;84.90;;;;;;5071853;28;20415;-73
2021/03/31 09:37:13;;;;;;;57.85;26.55;;;20.30;84.60;;;;;;5069117;28;20043;-73
2021/03/31 09:39:46;;;;;;;52.38;24.85;;;20.40;84.50;;;;;;5054785;28;20020;-73
2021/03/31 09:42:19;;;;;;;57.03;25.73;;;20.50;84.20;;;;;;5071215;28;20048;-72
2021/03/31 09:44:46;;;;;;;56.63;27.65;;;20.70;83.20;;;;;;5053939;28;20082;-73
2021/03/31 09:47:12;;;;;;;52.75;26.83;;;20.80;83.10;;;;;;5052692;28;20028;-72
2021/03/31 09:49:42;;;;;;;56.95;27.27;;;20.90;81.80;;;;;;5067407;28;20025;-72
2021/03/31 09:52:07;;;;;;;52.25;25.85;;;21.00;81.50;;;;;;5059653;28;20021;-72
2021/03/31 09:54:33;;;;;;;50.92;26.33;;;21.20;81.10;;;;;;5047088;28;20116;-71
2021/03/31 09:56:59;;;;;;;52.45;26.65;;;21.30;81.20;;;;;;5068440;28;20527;-72
2021/03/31 09:59:25;;;;;;;50.58;25.27;;;21.40;80.30;;;;;;5070535;28;20032;-71
2021/03/31 10:01:51;;;;;;;47.60;25.20;;;21.50;80.00;;;;;;5071890;28;20025;-72
2021/03/31 10:04:18;;;;;;;50.00;24.48;;;21.70;77.60;;;;;;5054635;28;20037;-72
2021/03/31 10:06:43;;;;;;;55.97;23.23;;;21.70;78.70;;;;;;5053307;28;20036;-73
2021/03/31 10:09:19;;;;;;;45.80;23.60;;;21.80;78.30;;;;;;5071701;28;20095;-72
2021/03/31 10:11:46;;;;;;;51.95;26.63;;;21.90;78.00;;;;;;5065565;28;20032;-73
2021/03/31 10:14:20;;;;;;;46.75;25.77;;;22.10;76.40;;;;;;5069452;28;20055;-73
2021/03/31 10:16:46;;;;;;;58.00;26.88;;;22.10;77.30;;;;;;5071707;28;20086;-74
2021/03/31 10:19:13;;;;;;;62.05;25.83;;;22.30;77.00;;;;;;5071649;28;20029;-73
2021/03/31 10:21:39;;;;;;;57.93;26.43;;;22.50;75.30;;;;;;5072320;28;20537;-74
2021/03/31 10:24:06;;;;;;;50.50;25.83;;;22.50;75.60;;;;;;5072187;28;20066;-74
2021/03/31 10:26:34;;;;;;;55.35;25.17;;;22.60;76.70;;;;;;5071704;28;20029;-73
2021/03/31 10:29:03;;;;;;;50.58;27.08;;;22.70;75.10;;;;;;5072257;28;20029;-73
2021/03/31 10:31:40;;;;;;;53.58;25.60;;;22.80;75.30;;;;;;5072389;28;20485;-73
2021/03/31 10:34:07;;;;;;;56.67;25.27;;;22.90;76.00;;;;;;5071952;28;20079;-73
2021/03/31 10:50:23;;;;;;;52.33;25.23;;;23.50;74.10;;;;;;5058658;28;20094;-73
2021/03/31 10:52:51;;;;;;;52.83;25.63;;;23.60;74.80;;;;;;5075987;28;20063;-74
2021/03/31 10:55:17;;;;;;;57.40;26.70;;;23.80;74.70;;;;;;5075762;28;20165;-73
2021/03/31 10:57:43;;;;;;;56.92;26.67;;;23.80;75.00;;;;;;5057798;28;20084;-73
2021/03/31 11:00:09;;;;;;;53.65;26.58;;;23.90;75.30;;;;;;5068814;28;20484;-72
2021/03/31 11:02:34;;;;;;;48.90;20.92;;;23.90;74.60;;;;;;5068327;28;20040;-72
2021/03/31 11:05:00;;;;;;;40.53;20.63;;;24.10;72.90;;;;;;5062057;28;20028;-73
2021/03/31 11:07:26;;;;;;;34.22;19.65;;;24.20;72.20;;;;;;5073594;28;20052;-72
2021/03/31 11:09:51;;;;;;;51.45;22.42;;;24.30;70.90;;;;;;5051801;28;20017;-72
2021/03/31 11:12:17;;;;;;;37.05;18.08;;;24.40;70.40;;;;;;5074696;28;20009;-72
2021/03/31 11:14:42;;;;;;;39.00;17.70;;;24.50;70.40;;;;;;5073104;28;20046;-72
2021/03/31 11:17:18;;;;;;;36.83;18.48;;;24.60;70.40;;;;;;5074201;28;20108;-73
2021/03/31 11:28:13;;;;;;;42.30;18.63;;;24.50;68.50;;;;;;5020319;28;20049;-74
2021/03/31 11:30:38;;;;;;;38.72;18.48;;;24.60;70.40;;;;;;5048564;28;20120;-74
2021/03/31 11:33:04;;;;;;;39.70;19.48;;;24.70;71.30;;;;;;5054960;28;20061;-73
2021/03/31 11:35:30;;;;;;;40.80;18.30;;;24.60;69.10;;;;;;5039895;28;20495;-74
2021/03/31 11:37:56;;;;;;;44.25;21.08;;;24.50;70.20;;;;;;5074676;28;20040;-72
2021/03/31 11:40:21;;;;;;;38.33;18.60;;;24.60;68.60;;;;;;5064426;28;20055;-72
2021/03/31 11:42:47;;;;;;;43.92;19.52;;;24.70;68.30;;;;;;5062388;28;20020;-74
2021/03/31 11:45:14;;;;;;;43.92;18.95;;;24.80;68.20;;;;;;5043071;28;20029;-75
2021/03/31 11:47:40;;;;;;;40.58;19.85;;;24.80;68.60;;;;;;5067089;28;20024;-74
2021/03/31 11:50:06;;;;;;;44.78;20.90;;;24.90;68.80;;;;;;5048922;28;20039;-73
2021/03/31 11:52:32;;;;;;;53.03;21.65;;;24.80;69.00;;;;;;5054284;28;20421;-73
2021/03/31 11:54:57;;;;;;;48.65;22.92;;;24.80;68.50;;;;;;5066777;28;20025;-74
2021/03/31 11:57:23;;;;;;;42.33;20.40;;;24.90;69.40;;;;;;5070338;28;20041;-75
2021/03/31 11:59:48;;;;;;;41.40;20.05;;;25.00;69.70;;;;;;5053683;28;20028;-73
2021/03/31 12:02:14;;;;;;;44.53;21.15;;;25.00;69.50;;;;;;5071959;28;20028;-74
2021/03/31 12:04:40;;;;;;;47.53;19.30;;;24.90;69.80;;;;;;5071419;28;20081;-72
2021/03/31 12:07:08;;;;;;;44.63;20.10;;;25.00;70.40;;;;;;5072367;28;20370;-74
2021/03/31 12:09:33;;;;;;;39.50;19.45;;;25.00;69.60;;;;;;5073074;28;20150;-74
2021/03/31 12:11:59;;;;;;;39.50;18.38;;;25.00;70.80;;;;;;5072725;28;20103;-74
2021/03/31 12:14:25;;;;;;;44.08;20.08;;;25.10;69.40;;;;;;5055117;28;20024;-72
2021/03/31 12:16:50;;;;;;;42.90;20.50;;;25.20;69.00;;;;;;5072839;28;20027;-74
2021/03/31 12:19:16;;;;;;;42.08;20.08;;;25.20;70.30;;;;;;5073232;28;20025;-74
2021/03/31 12:21:41;;;;;;;39.60;18.55;;;25.30;70.00;;;;;;5072695;28;20024;-74
2021/03/31 12:24:07;;;;;;;38.38;18.23;;;25.40;68.80;;;;;;5068985;28;20098;-74
2021/03/31 12:26:33;;;;;;;41.00;17.67;;;25.40;67.90;;;;;;5041943;28;20389;-75
2021/03/31 12:28:59;;;;;;;39.83;16.88;;;25.60;68.50;;;;;;5067552;28;20025;-75
2021/03/31 12:31:25;;;;;;;42.72;16.77;;;25.70;66.70;;;;;;5073217;28;20012;-75
2021/03/31 12:33:51;;;;;;;36.28;16.85;;;25.40;68.30;;;;;;5051604;28;20031;-75
2021/03/31 12:36:17;;;;;;;43.05;19.48;;;25.50;68.80;;;;;;5072062;28;20529;-75
2021/03/31 12:38:43;;;;;;;39.35;18.73;;;25.60;68.60;;;;;;5055293;28;20073;-75
2021/03/31 12:41:08;;;;;;;41.30;18.60;;;25.70;68.90;;;;;;5071686;28;20522;-75
2021/03/31 12:43:34;;;;;;;42.13;17.20;;;25.80;67.10;;;;;;5073427;28;20039;-75
2021/03/31 12:46:00;;;;;;;41.88;17.55;;;25.90;65.70;;;;;;5073418;28;20385;-75
2021/03/31 12:48:26;;;;;;;47.03;20.67;;;25.90;65.40;;;;;;5072329;28;20052;-75
2021/03/31 12:51:05;;;;;;;48.72;20.98;;;25.90;66.90;;;;;;5070010;28;20048;-74
2021/03/31 12:53:36;;;;;;;48.22;21.45;;;25.90;65.10;;;;;;5072602;28;20527;-75
2021/03/31 12:56:02;;;;;;;48.80;20.50;;;25.80;66.10;;;;;;5055017;28;20477;-74
2021/03/31 12:58:28;;;;;;;49.13;20.85;;;26.00;66.90;;;;;;5067778;28;20082;-74
2021/03/31 13:00:57;;;;;;;43.95;17.50;;;26.10;66.30;;;;;;5041085;28;20033;-75